createdAt,value
2022-12-06T00:00:16.442Z,1.04
2022-12-06T00:01:16.534Z,1.04
2022-12-06T00:02:16.712Z,1.04
2022-12-06T00:03:16.831Z,1.04
2022-12-06T00:04:16.938Z,1.04
2022-12-06T00:05:17.085Z,1.04
2022-12-06T00:06:17.194Z,1.04
2022-12-06T00:07:17.344Z,1.04
2022-12-06T00:08:17.541Z,1.04
2022-12-06T00:09:17.651Z,1.04
2022-12-06T00:10:17.790Z,1.04
2022-12-06T00:11:17.916Z,1.04
2022-12-06T00:12:18.059Z,1.04
2022-12-06T00:13:18.202Z,1.04
2022-12-06T00:14:18.345Z,1.04
2022-12-06T00:15:18.457Z,1.04
2022-12-06T00:16:18.650Z,1.04
2022-12-06T00:17:18.662Z,1.04
2022-12-06T00:18:18.844Z,1.04
2022-12-06T00:19:18.935Z,1.04
2022-12-06T00:20:19.097Z,1.04
2022-12-06T00:21:19.213Z,1.04
2022-12-06T00:22:19.373Z,1.04
2022-12-06T00:23:19.525Z,1.04
2022-12-06T00:24:19.673Z,1.04
2022-12-06T00:25:19.817Z,1.04
2022-12-06T00:26:19.968Z,1.04
2022-12-06T00:27:20.071Z,1.04
2022-12-06T00:28:20.228Z,1.04
2022-12-06T00:29:20.402Z,1.04
2022-12-06T00:30:20.533Z,1.04
2022-12-06T00:31:20.699Z,1.04
2022-12-06T00:32:20.867Z,1.04
2022-12-06T00:33:20.931Z,1.04
2022-12-06T00:34:21.078Z,1.04
2022-12-06T00:35:21.294Z,1.04
2022-12-06T00:36:21.390Z,1.04
2022-12-06T00:37:21.542Z,1.04
2022-12-06T00:38:21.695Z,1.04
2022-12-06T00:39:21.844Z,1.04
2022-12-06T00:40:21.989Z,1.04
2022-12-06T00:41:22.144Z,1.04
2022-12-06T00:42:22.289Z,1.04
2022-12-06T00:43:22.443Z,1.04
2022-12-06T00:44:22.549Z,1.04
2022-12-06T00:45:22.701Z,1.04
2022-12-06T00:46:22.919Z,1.04
2022-12-06T00:47:22.944Z,1.04
2022-12-06T00:48:23.093Z,1.04
2022-12-06T00:49:23.250Z,1.04
2022-12-06T00:50:23.408Z,1.04
2022-12-06T00:51:23.561Z,1.04
2022-12-06T00:52:23.717Z,1.04
2022-12-06T00:53:23.859Z,1.04
2022-12-06T00:54:24.010Z,1.04
2022-12-06T00:55:24.158Z,1.04
2022-12-06T00:56:24.314Z,1.04
2022-12-06T00:57:24.419Z,1.04
2022-12-06T00:58:24.556Z,1.04
2022-12-06T00:59:24.732Z,1.04
2022-12-06T01:00:24.863Z,1.04
2022-12-06T01:01:25.056Z,1.04
2022-12-06T01:02:25.144Z,1.04
2022-12-06T01:03:25.908Z,1.04
2022-12-06T01:04:25.389Z,1.04
2022-12-06T01:05:25.524Z,1.04
2022-12-06T01:06:25.679Z,1.04
2022-12-06T01:07:25.829Z,1.04
2022-12-06T01:08:25.958Z,1.04
2022-12-06T01:09:26.089Z,1.04
2022-12-06T01:10:26.245Z,1.04
2022-12-06T01:11:26.384Z,1.04
2022-12-06T01:12:26.545Z,1.04
2022-12-06T01:13:26.691Z,1.04
2022-12-06T01:14:26.837Z,1.04
2022-12-06T01:15:26.998Z,1.04
2022-12-06T01:16:27.225Z,1.04
2022-12-06T01:17:27.193Z,1.04
2022-12-06T01:18:27.342Z,1.04
2022-12-06T01:19:27.440Z,1.04
2022-12-06T01:20:27.587Z,1.04
2022-12-06T01:21:27.674Z,1.04
2022-12-06T01:22:27.866Z,1.04
2022-12-06T01:23:28.007Z,1.04
2022-12-06T01:24:28.149Z,1.04
2022-12-06T01:25:30.662Z,1.04
2022-12-06T01:26:28.511Z,1.04
2022-12-06T01:27:28.657Z,1.04
2022-12-06T01:28:28.857Z,1.04
2022-12-06T01:29:28.913Z,1.04
2022-12-06T01:30:29.040Z,1.04
2022-12-06T01:31:33.925Z,1.04
2022-12-06T01:32:29.325Z,1.04
2022-12-06T01:33:29.471Z,1.04
2022-12-06T01:34:29.560Z,1.04
2022-12-06T01:35:29.720Z,1.04
2022-12-06T01:36:29.876Z,1.04
2022-12-06T01:37:30.024Z,1.04
2022-12-06T01:38:30.172Z,1.04
2022-12-06T01:39:30.285Z,1.04
2022-12-06T01:40:30.425Z,1.04
2022-12-06T01:41:30.581Z,1.04
2022-12-06T01:42:30.728Z,1.04
2022-12-06T01:43:30.882Z,1.04
2022-12-06T01:44:31.042Z,1.04
2022-12-06T01:45:31.180Z,1.04
2022-12-06T01:46:31.390Z,1.04
2022-12-06T01:47:31.422Z,1.04
2022-12-06T01:48:31.600Z,1.04
2022-12-06T01:49:31.739Z,1.04
2022-12-06T01:50:31.893Z,1.04
2022-12-06T01:51:32.038Z,1.04
2022-12-06T01:52:32.188Z,1.04
2022-12-06T01:53:32.355Z,1.04
2022-12-06T01:54:32.507Z,1.04
2022-12-06T01:55:32.652Z,1.04
2022-12-06T01:56:32.779Z,1.04
2022-12-06T01:57:32.891Z,1.04
2022-12-06T01:58:33.051Z,1.04
2022-12-06T01:59:33.251Z,1.04
2022-12-06T02:00:33.456Z,1.04
2022-12-06T02:01:33.655Z,1.04
2022-12-06T02:02:33.791Z,1.04
2022-12-06T02:03:33.911Z,1.04
2022-12-06T02:04:34.081Z,1.04
2022-12-06T02:05:39.091Z,1.04
2022-12-06T02:06:34.364Z,1.04
2022-12-06T02:07:34.569Z,1.04
2022-12-06T02:08:34.611Z,1.04
2022-12-06T02:09:34.769Z,1.04
2022-12-06T02:10:34.917Z,1.04
2022-12-06T02:11:35.775Z,1.04
2022-12-06T02:12:35.226Z,1.04
2022-12-06T02:13:35.370Z,1.04
2022-12-06T02:14:35.527Z,1.04
2022-12-06T02:15:35.678Z,1.04
2022-12-06T02:16:36.679Z,1.04
2022-12-06T02:17:35.974Z,1.04
2022-12-06T02:18:36.710Z,1.04
2022-12-06T02:19:36.638Z,1.04
2022-12-06T02:20:36.433Z,1.04
2022-12-06T02:21:36.521Z,1.04
2022-12-06T02:22:36.684Z,1.04
2022-12-06T02:23:36.833Z,1.04
2022-12-06T02:24:36.937Z,1.04
2022-12-06T02:25:40.695Z,1.04
2022-12-06T02:26:37.246Z,1.04
2022-12-06T02:27:37.391Z,1.04
2022-12-06T02:28:37.545Z,1.04
2022-12-06T02:29:37.699Z,1.04
2022-12-06T02:30:37.832Z,1.04
2022-12-06T02:31:37.945Z,1.04
2022-12-06T02:32:38.114Z,1.04
2022-12-06T02:33:38.291Z,1.04
2022-12-06T02:34:38.503Z,1.04
2022-12-06T02:35:38.642Z,1.04
2022-12-06T02:36:38.759Z,1.04
2022-12-06T02:37:38.856Z,1.04
2022-12-06T02:38:38.953Z,1.04
2022-12-06T02:39:39.097Z,1.04
2022-12-06T02:40:39.235Z,1.04
2022-12-06T02:41:39.436Z,1.04
2022-12-06T02:42:39.488Z,1.04
2022-12-06T02:43:39.699Z,1.04
2022-12-06T02:44:39.819Z,1.04
2022-12-06T02:45:39.966Z,1.04
2022-12-06T02:46:40.183Z,1.04
2022-12-06T02:47:40.275Z,1.04
2022-12-06T02:48:40.373Z,1.04
2022-12-06T02:49:40.541Z,1.04
2022-12-06T02:50:40.683Z,1.04
2022-12-06T02:51:40.829Z,1.04
2022-12-06T02:52:40.931Z,1.04
2022-12-06T02:53:41.076Z,1.04
2022-12-06T02:54:41.231Z,1.04
2022-12-06T02:55:41.383Z,1.04
2022-12-06T02:56:41.540Z,1.04
2022-12-06T02:57:41.707Z,1.04
2022-12-06T02:58:41.827Z,1.04
2022-12-06T02:59:41.991Z,1.04
2022-12-06T03:00:42.129Z,1.04
2022-12-06T03:01:42.380Z,1.04
2022-12-06T03:02:42.480Z,1.04
2022-12-06T03:03:42.547Z,1.04
2022-12-06T03:04:42.693Z,1.04
2022-12-06T03:05:42.862Z,1.04
2022-12-06T03:06:43.011Z,1.04
2022-12-06T03:07:43.235Z,1.04
2022-12-06T03:08:43.301Z,1.04
2022-12-06T03:09:43.448Z,1.04
2022-12-06T03:10:43.610Z,1.04
2022-12-06T03:11:43.766Z,1.04
2022-12-06T03:12:43.917Z,1.04
2022-12-06T03:13:44.055Z,1.04
2022-12-06T03:14:44.190Z,1.04
2022-12-06T03:15:44.358Z,1.04
2022-12-06T03:16:44.463Z,1.04
2022-12-06T03:17:44.615Z,1.04
2022-12-06T03:18:44.765Z,1.04
2022-12-06T03:19:44.874Z,1.04
2022-12-06T03:20:45.015Z,1.04
2022-12-06T03:21:45.109Z,1.04
2022-12-06T03:22:45.251Z,1.04
2022-12-06T03:23:45.474Z,1.04
2022-12-06T03:24:45.579Z,1.04
2022-12-06T03:25:45.721Z,1.04
2022-12-06T03:26:45.883Z,1.04
2022-12-06T03:27:46.011Z,1.04
2022-12-06T03:28:46.129Z,1.04
2022-12-06T03:29:46.284Z,1.04
2022-12-06T03:30:46.492Z,1.04
2022-12-06T03:31:46.589Z,1.04
2022-12-06T03:32:46.751Z,1.04
2022-12-06T03:33:46.893Z,1.04
2022-12-06T03:34:47.035Z,1.04
2022-12-06T03:35:47.195Z,1.04
2022-12-06T03:36:47.301Z,1.04
2022-12-06T03:37:47.439Z,1.04
2022-12-06T03:38:47.601Z,1.04
2022-12-06T03:39:47.760Z,1.04
2022-12-06T03:40:47.903Z,1.04
2022-12-06T03:41:48.055Z,1.04
2022-12-06T03:42:48.212Z,1.04
2022-12-06T03:43:48.356Z,1.04
2022-12-06T03:44:48.463Z,1.04
2022-12-06T03:45:48.659Z,1.04
2022-12-06T03:46:48.770Z,1.04
2022-12-06T03:47:48.859Z,1.04
2022-12-06T03:48:49.021Z,1.04
2022-12-06T03:49:49.164Z,1.04
2022-12-06T03:50:51.897Z,1.04
2022-12-06T03:51:49.427Z,1.04
2022-12-06T03:52:49.565Z,1.04
2022-12-06T03:53:49.716Z,1.04
2022-12-06T03:54:49.816Z,1.04
2022-12-06T03:55:49.961Z,1.04
2022-12-06T03:56:50.746Z,1.04
2022-12-06T03:57:50.227Z,1.04
2022-12-06T03:58:50.320Z,1.04
2022-12-06T03:59:51.034Z,1.04
2022-12-06T04:00:50.616Z,1.04
2022-12-06T04:01:51.173Z,1.04
2022-12-06T04:02:50.887Z,1.04
2022-12-06T04:03:51.392Z,1.04
2022-12-06T04:04:51.170Z,1.04
2022-12-06T04:05:51.906Z,1.04
2022-12-06T04:06:51.428Z,1.04
2022-12-06T04:07:51.649Z,1.04
2022-12-06T04:08:51.689Z,1.04
2022-12-06T04:09:51.840Z,1.04
2022-12-06T04:10:51.994Z,1.04
2022-12-06T04:11:52.144Z,1.04
2022-12-06T04:12:52.298Z,1.04
2022-12-06T04:13:52.453Z,1.04
2022-12-06T04:14:52.612Z,1.04
2022-12-06T04:15:52.830Z,1.04
2022-12-06T04:16:52.904Z,1.04
2022-12-06T04:17:53.066Z,1.04
2022-12-06T04:18:53.197Z,1.04
2022-12-06T04:19:53.353Z,1.04
2022-12-06T04:20:53.470Z,1.04
2022-12-06T04:21:53.608Z,1.04
2022-12-06T04:22:53.753Z,1.04
2022-12-06T04:23:53.920Z,1.04
2022-12-06T04:24:54.073Z,1.04
2022-12-06T04:25:54.213Z,1.04
2022-12-06T04:26:54.363Z,1.04
2022-12-06T04:27:54.513Z,1.04
2022-12-06T04:28:54.664Z,1.04
2022-12-06T04:29:54.830Z,1.04
2022-12-06T04:30:55.021Z,1.04
2022-12-06T04:31:55.138Z,1.04
2022-12-06T04:32:55.180Z,1.04
2022-12-06T04:33:55.330Z,1.04
2022-12-06T04:34:55.471Z,1.04
2022-12-06T04:35:55.626Z,1.04
2022-12-06T04:36:55.786Z,1.04
2022-12-06T04:37:55.933Z,1.04
2022-12-06T04:38:56.090Z,1.04
2022-12-06T04:39:56.253Z,1.04
2022-12-06T04:40:56.386Z,1.04
2022-12-06T04:41:56.536Z,1.04
2022-12-06T04:42:56.664Z,1.04
2022-12-06T04:43:56.789Z,1.04
2022-12-06T04:44:56.895Z,1.04
2022-12-06T04:45:57.032Z,1.04
2022-12-06T04:46:57.252Z,1.04
2022-12-06T04:47:57.347Z,1.04
2022-12-06T04:48:57.466Z,1.04
2022-12-06T04:49:57.808Z,1.04
2022-12-06T04:50:57.751Z,1.04
2022-12-06T04:51:57.863Z,1.04
2022-12-06T04:52:57.999Z,1.04
2022-12-06T04:53:58.152Z,1.04
2022-12-06T04:54:58.310Z,1.04
2022-12-06T04:55:58.404Z,1.04
2022-12-06T04:56:58.572Z,1.04
2022-12-06T04:57:58.670Z,1.04
2022-12-06T04:58:58.821Z,1.04
2022-12-06T04:59:59.260Z,1.04
2022-12-06T05:00:59.134Z,1.04
2022-12-06T05:01:59.237Z,1.04
2022-12-06T05:02:59.366Z,1.04
2022-12-06T05:03:59.572Z,1.04
2022-12-06T05:04:59.688Z,1.04
2022-12-06T05:05:59.826Z,1.04
2022-12-06T05:06:59.985Z,1.04
2022-12-06T05:08:00.204Z,1.04
2022-12-06T05:09:00.272Z,1.04
2022-12-06T05:10:00.822Z,1.04
2022-12-06T05:11:00.593Z,1.04
2022-12-06T05:12:00.734Z,1.04
2022-12-06T05:13:00.896Z,1.04
2022-12-06T05:14:01.033Z,1.04
2022-12-06T05:15:01.149Z,1.04
2022-12-06T05:16:01.332Z,1.04
2022-12-06T05:17:01.437Z,1.04
2022-12-06T05:18:01.588Z,1.04
2022-12-06T05:19:01.754Z,1.04
2022-12-06T05:20:02.052Z,1.04
2022-12-06T05:21:02.004Z,1.04
2022-12-06T05:22:02.170Z,1.04
2022-12-06T05:23:02.303Z,1.04
2022-12-06T05:24:02.449Z,1.04
2022-12-06T05:25:02.562Z,1.04
2022-12-06T05:26:02.702Z,1.04
2022-12-06T05:27:02.849Z,1.04
2022-12-06T05:28:03.002Z,1.04
2022-12-06T05:29:03.106Z,1.04
2022-12-06T05:30:03.261Z,1.04
2022-12-06T05:31:03.473Z,1.04
2022-12-06T05:32:03.576Z,1.04
2022-12-06T05:33:03.617Z,1.04
2022-12-06T05:34:03.769Z,1.04
2022-12-06T05:35:03.908Z,1.04
2022-12-06T05:36:04.003Z,1.04
2022-12-06T05:37:04.106Z,1.04
2022-12-06T05:38:04.210Z,1.04
2022-12-06T05:39:04.382Z,1.04
2022-12-06T05:40:04.517Z,1.04
2022-12-06T05:41:04.678Z,1.04
2022-12-06T05:42:04.799Z,1.04
2022-12-06T05:43:04.930Z,1.04
2022-12-06T05:44:05.024Z,1.04
2022-12-06T05:45:05.184Z,1.04
2022-12-06T05:46:05.308Z,1.04
2022-12-06T05:47:05.432Z,1.04
2022-12-06T05:48:05.541Z,1.04
2022-12-06T05:49:05.689Z,1.04
2022-12-06T05:50:05.836Z,1.04
2022-12-06T05:51:05.997Z,1.04
2022-12-06T05:52:06.145Z,1.04
2022-12-06T05:53:06.247Z,1.04
2022-12-06T05:54:06.403Z,1.04
2022-12-06T05:55:06.542Z,1.04
2022-12-06T05:56:06.688Z,1.04
2022-12-06T05:57:06.859Z,1.04
2022-12-06T05:58:07.006Z,1.04
2022-12-06T05:59:07.163Z,1.04
2022-12-06T06:00:07.305Z,1.04
2022-12-06T06:01:07.454Z,1.04
2022-12-06T06:02:07.599Z,1.04
2022-12-06T06:03:07.813Z,1.04
2022-12-06T06:04:07.861Z,1.04
2022-12-06T06:05:08.006Z,1.04
2022-12-06T06:06:08.155Z,1.04
2022-12-06T06:07:08.253Z,1.04
2022-12-06T06:08:08.432Z,1.04
2022-12-06T06:09:08.526Z,1.04
2022-12-06T06:10:08.666Z,1.04
2022-12-06T06:11:08.816Z,1.04
2022-12-06T06:12:12.404Z,1.04
2022-12-06T06:13:09.125Z,1.04
2022-12-06T06:14:09.276Z,1.04
2022-12-06T06:15:09.448Z,1.04
2022-12-06T06:16:09.622Z,1.04
2022-12-06T06:17:09.769Z,1.04
2022-12-06T06:18:10.782Z,1.04
2022-12-06T06:19:10.027Z,1.04
2022-12-06T06:20:10.186Z,1.04
2022-12-06T06:21:10.322Z,2
2022-12-06T06:22:10.492Z,2
2022-12-06T06:23:10.629Z,2
2022-12-06T06:24:10.794Z,2
2022-12-06T06:25:10.929Z,2
2022-12-06T06:26:11.037Z,3.04
2022-12-06T06:27:11.182Z,4
2022-12-06T06:28:11.338Z,4
2022-12-06T06:29:11.492Z,4
2022-12-06T06:30:11.641Z,5.04
2022-12-06T06:31:11.784Z,6
2022-12-06T06:32:12.056Z,7.04
2022-12-06T06:33:12.099Z,8
2022-12-06T06:34:12.250Z,10
2022-12-06T06:35:12.408Z,12
2022-12-06T06:36:12.504Z,12
2022-12-06T06:37:12.664Z,12
2022-12-06T06:38:12.761Z,15.04
2022-12-06T06:39:12.896Z,20
2022-12-06T06:40:13.056Z,22
2022-12-06T06:41:13.216Z,25.04
2022-12-06T06:42:13.364Z,25.04
2022-12-06T06:43:13.506Z,26
2022-12-06T06:44:13.659Z,29.04
2022-12-06T06:45:13.807Z,31.04
2022-12-06T06:46:14.008Z,36
2022-12-06T06:47:14.149Z,41.04
2022-12-06T06:48:14.523Z,43.04
2022-12-06T06:49:14.522Z,44
2022-12-06T06:50:14.633Z,47.04
2022-12-06T06:51:14.722Z,52
2022-12-06T06:52:14.873Z,51.04
2022-12-06T06:53:15.018Z,56
2022-12-06T06:54:15.184Z,57.04
2022-12-06T06:55:15.323Z,53.04
2022-12-06T06:56:15.470Z,60
2022-12-06T06:57:17.758Z,63.04
2022-12-06T06:58:15.731Z,65.04
2022-12-06T06:59:15.884Z,69.04
2022-12-06T07:00:16.043Z,68
2022-12-06T07:01:16.263Z,62
2022-12-06T07:02:17.273Z,57.04
2022-12-06T07:03:16.486Z,62
2022-12-06T07:04:16.624Z,70
2022-12-06T07:05:16.771Z,75.04
2022-12-06T07:06:16.909Z,79.04
2022-12-06T07:07:20.870Z,83.04
2022-12-06T07:08:17.251Z,98
2022-12-06T07:09:17.257Z,107.04
2022-12-06T07:10:17.405Z,120
2022-12-06T07:11:17.581Z,125.04
2022-12-06T07:12:17.709Z,116
2022-12-06T07:13:17.852Z,109.04
2022-12-06T07:14:18.009Z,128
2022-12-06T07:15:18.180Z,148
2022-12-06T07:16:18.365Z,178.08
2022-12-06T07:17:18.447Z,161.04
2022-12-06T07:18:18.569Z,160
2022-12-06T07:19:18.672Z,153.04
2022-12-06T07:20:18.818Z,163.04
2022-12-06T07:21:18.985Z,169.12
2022-12-06T07:22:19.121Z,154
2022-12-06T07:23:19.399Z,164
2022-12-06T07:24:19.433Z,175.04
2022-12-06T07:25:19.588Z,196
2022-12-06T07:26:19.679Z,206.08
2022-12-06T07:27:19.843Z,204
2022-12-06T07:28:19.979Z,210.08
2022-12-06T07:29:20.130Z,195.04
2022-12-06T07:30:24.289Z,184
2022-12-06T07:31:20.572Z,188
2022-12-06T07:32:20.532Z,193.12
2022-12-06T07:33:20.681Z,185.12
2022-12-06T07:34:20.835Z,200
2022-12-06T07:35:20.995Z,260
2022-12-06T07:36:21.138Z,304
2022-12-06T07:37:21.295Z,302.08
2022-12-06T07:38:21.447Z,275.04
2022-12-06T07:39:21.599Z,266.08
2022-12-06T07:40:35.387Z,277.12
2022-12-06T07:41:21.892Z,261.12
2022-12-06T07:42:22.041Z,249.12
2022-12-06T07:43:22.199Z,304
2022-12-06T07:44:22.356Z,457.28
2022-12-06T07:45:22.498Z,496
2022-12-06T07:46:22.730Z,425.28
2022-12-06T07:47:22.749Z,363.2
2022-12-06T07:48:22.849Z,356.16
2022-12-06T07:49:23.067Z,335.04
2022-12-06T07:50:23.107Z,372.16
2022-12-06T07:51:23.195Z,541.12
2022-12-06T07:52:23.356Z,512
2022-12-06T07:53:23.511Z,466.24
2022-12-06T07:54:23.624Z,450.24
2022-12-06T07:55:23.768Z,524.16
2022-12-06T07:56:23.929Z,584
2022-12-06T07:57:24.039Z,693.12
2022-12-06T07:58:24.174Z,715.52
2022-12-06T07:59:24.283Z,655.04
2022-12-06T08:00:24.419Z,598.08
2022-12-06T08:01:24.625Z,684.16
2022-12-06T08:02:24.718Z,834.56
2022-12-06T08:03:24.916Z,871.04
2022-12-06T08:04:25.123Z,802.56
2022-12-06T08:05:25.240Z,822.4
2022-12-06T08:06:25.385Z,835.2
2022-12-06T08:07:25.538Z,892.16
2022-12-06T08:08:28.650Z,837.12
2022-12-06T08:09:25.845Z,806.4
2022-12-06T08:10:25.988Z,770.56
2022-12-06T08:11:26.156Z,750.08
2022-12-06T08:12:26.330Z,871.04
2022-12-06T08:13:26.443Z,1045.12
2022-12-06T08:14:26.593Z,1116.16
2022-12-06T08:15:26.752Z,1076.48
2022-12-06T08:16:26.950Z,1026.56
2022-12-06T08:17:27.004Z,1030.4
2022-12-06T08:18:27.150Z,1055.36
2022-12-06T08:19:27.258Z,1077.12
2022-12-06T08:20:27.404Z,1061.12
2022-12-06T08:21:27.570Z,1027.2
2022-12-06T08:22:27.707Z,1019.52
2022-12-06T08:23:32.343Z,1039.36
2022-12-06T08:24:28.013Z,1033.6
2022-12-06T08:25:28.164Z,994.56
2022-12-06T08:26:28.309Z,1015.04
2022-12-06T08:27:28.471Z,1119.36
2022-12-06T08:28:28.619Z,1146.24
2022-12-06T08:29:28.769Z,1080.32
2022-12-06T08:30:28.917Z,1043.2
2022-12-06T08:31:29.139Z,1061.12
2022-12-06T08:32:29.157Z,1096.32
2022-12-06T08:33:29.317Z,1089.28
2022-12-06T08:34:29.477Z,1069.44
2022-12-06T08:35:29.634Z,1132.16
2022-12-06T08:36:29.785Z,1191.04
2022-12-06T08:37:29.926Z,1161.6
2022-12-06T08:38:30.079Z,1052.16
2022-12-06T08:39:30.228Z,1064.32
2022-12-06T08:40:30.378Z,1201.28
2022-12-06T08:41:30.489Z,1427.2
2022-12-06T08:42:30.635Z,1461.76
2022-12-06T08:43:30.857Z,1495.04
2022-12-06T08:44:30.993Z,1565.44
2022-12-06T08:45:31.151Z,1564.16
2022-12-06T08:46:31.327Z,1542.4
2022-12-06T08:47:31.436Z,1738.24
2022-12-06T08:48:31.612Z,1658.88
2022-12-06T08:49:31.750Z,1501.44
2022-12-06T08:50:31.880Z,1477.12
2022-12-06T08:51:32.035Z,1612.8
2022-12-06T08:52:32.195Z,1608.96
2022-12-06T08:53:32.290Z,1548.8
2022-12-06T08:54:32.437Z,1478.4
2022-12-06T08:55:32.545Z,1561.6
2022-12-06T08:56:32.700Z,1583.36
2022-12-06T08:57:32.805Z,1509.12
2022-12-06T08:58:32.900Z,1582.08
2022-12-06T08:59:33.056Z,1701.12
2022-12-06T09:00:33.196Z,1666.56
2022-12-06T09:01:37.649Z,1644.8
2022-12-06T09:02:33.469Z,1713.92
2022-12-06T09:03:33.617Z,1651.2
2022-12-06T09:04:33.889Z,1559.04
2022-12-06T09:05:33.918Z,1496.32
2022-12-06T09:06:34.015Z,1518.08
2022-12-06T09:07:34.203Z,1502.72
2022-12-06T09:08:34.353Z,1452.8
2022-12-06T09:09:34.463Z,1459.2
2022-12-06T09:10:34.596Z,1425.92
2022-12-06T09:11:34.734Z,1377.28
2022-12-06T09:12:34.872Z,1411.84
2022-12-06T09:13:35.028Z,1368.32
2022-12-06T09:14:35.183Z,1297.28
2022-12-06T09:15:35.377Z,1254.4
2022-12-06T09:16:35.502Z,1265.28
2022-12-06T09:17:35.585Z,1209.6
2022-12-06T09:18:35.675Z,1181.44
2022-12-06T09:19:35.829Z,1206.4
2022-12-06T09:20:35.951Z,1181.44
2022-12-06T09:21:36.125Z,1498.88
2022-12-06T09:22:36.252Z,1696
2022-12-06T09:23:36.417Z,1815.04
2022-12-06T09:24:36.546Z,1918.72
2022-12-06T09:25:36.689Z,1975.04
2022-12-06T09:26:36.853Z,1861.12
2022-12-06T09:27:36.998Z,1745.92
2022-12-06T09:28:37.150Z,1835.52
2022-12-06T09:29:40.497Z,1690.88
2022-12-06T09:30:37.445Z,1619.2
2022-12-06T09:31:37.775Z,1804.8
2022-12-06T09:32:37.758Z,1781.76
2022-12-06T09:33:37.930Z,1726.72
2022-12-06T09:34:38.060Z,1780.48
2022-12-06T09:35:38.259Z,2050.56
2022-12-06T09:36:38.404Z,2090.24
2022-12-06T09:37:38.517Z,2133.76
2022-12-06T09:38:38.664Z,2065.92
2022-12-06T09:39:38.805Z,2004.48
2022-12-06T09:40:42.805Z,1975.04
2022-12-06T09:41:39.116Z,2026.24
2022-12-06T09:42:39.279Z,1959.68
2022-12-06T09:43:39.430Z,2122.24
2022-12-06T09:44:39.577Z,2161.92
2022-12-06T09:45:39.668Z,2339.84
2022-12-06T09:46:39.890Z,2132.48
2022-12-06T09:47:39.984Z,1882.88
2022-12-06T09:48:44.324Z,2190.08
2022-12-06T09:49:40.291Z,2097.92
2022-12-06T09:50:40.434Z,1931.52
2022-12-06T09:51:40.552Z,1982.72
2022-12-06T09:52:40.706Z,2150.4
2022-12-06T09:53:40.842Z,2382.08
2022-12-06T09:54:41.739Z,2140.16
2022-12-06T09:55:41.091Z,2113.28
2022-12-06T09:56:41.245Z,2179.84
2022-12-06T09:57:41.360Z,2124.8
2022-12-06T09:58:41.496Z,2346.24
2022-12-06T09:59:41.594Z,2515.2
2022-12-06T10:00:41.747Z,2368
2022-12-06T10:01:41.964Z,2243.84
2022-12-06T10:02:42.090Z,2342.4
2022-12-06T10:03:42.245Z,2405.12
2022-12-06T10:04:42.402Z,2214.4
2022-12-06T10:05:42.535Z,2289.92
2022-12-06T10:06:42.683Z,2278.4
2022-12-06T10:07:42.902Z,2382.08
2022-12-06T10:08:43.024Z,2403.84
2022-12-06T10:09:43.126Z,2519.04
2022-12-06T10:10:43.265Z,2680.32
2022-12-06T10:11:43.439Z,2721.28
2022-12-06T10:12:43.578Z,2533.12
2022-12-06T10:13:43.714Z,2492.16
2022-12-06T10:14:43.815Z,2690.56
2022-12-06T10:15:44.026Z,2723.84
2022-12-06T10:16:44.149Z,2680.32
2022-12-06T10:17:47.769Z,2695.68
2022-12-06T10:18:44.427Z,2908.16
2022-12-06T10:19:44.573Z,3010.56
2022-12-06T10:20:44.682Z,2915.84
2022-12-06T10:21:44.837Z,2636.8
2022-12-06T10:22:44.974Z,2641.92
2022-12-06T10:23:45.137Z,2592
2022-12-06T10:24:45.281Z,2502.4
2022-12-06T10:25:45.456Z,2536.96
2022-12-06T10:26:45.584Z,2538.24
2022-12-06T10:27:45.749Z,2429.44
2022-12-06T10:28:45.900Z,2538.24
2022-12-06T10:29:46.039Z,2339.84
2022-12-06T10:30:46.174Z,2351.36
2022-12-06T10:31:46.292Z,2378.24
2022-12-06T10:32:46.436Z,2183.68
2022-12-06T10:33:46.622Z,1909.76
2022-12-06T10:34:49.201Z,1954.56
2022-12-06T10:35:46.878Z,2241.28
2022-12-06T10:36:46.997Z,2350.08
2022-12-06T10:37:47.149Z,2164.48
2022-12-06T10:38:47.303Z,2142.72
2022-12-06T10:39:51.824Z,2154.24
2022-12-06T10:40:47.567Z,2346.24
2022-12-06T10:41:47.699Z,2218.24
2022-12-06T10:42:47.809Z,1962.24
2022-12-06T10:43:47.984Z,1962.24
2022-12-06T10:44:48.130Z,2004.48
2022-12-06T10:45:48.254Z,2466.56
2022-12-06T10:46:48.445Z,2612.48
2022-12-06T10:47:48.564Z,2576.64
2022-12-06T10:48:48.719Z,2469.12
2022-12-06T10:49:48.871Z,2470.4
2022-12-06T10:50:49.010Z,2243.84
2022-12-06T10:51:49.211Z,2415.36
2022-12-06T10:52:49.316Z,2439.68
2022-12-06T10:53:49.470Z,2170.88
2022-12-06T10:54:49.627Z,2213.12
2022-12-06T10:55:49.777Z,2414.08
2022-12-06T10:56:49.928Z,2734.08
2022-12-06T10:57:50.079Z,2969.6
2022-12-06T10:58:50.229Z,3320.32
2022-12-06T10:59:50.383Z,3243.52
2022-12-06T11:00:50.594Z,2882.56
2022-12-06T11:01:50.782Z,2516.48
2022-12-06T11:02:50.831Z,2938.88
2022-12-06T11:03:50.992Z,3220.48
2022-12-06T11:04:51.145Z,2721.28
2022-12-06T11:05:51.253Z,2479.36
2022-12-06T11:06:54.647Z,2690.56
2022-12-06T11:07:51.579Z,2703.36
2022-12-06T11:08:51.692Z,2769.92
2022-12-06T11:09:51.850Z,2457.6
2022-12-06T11:10:51.996Z,2255.36
2022-12-06T11:11:52.106Z,2292.48
2022-12-06T11:12:52.245Z,2023.68
2022-12-06T11:13:52.403Z,1762.56
2022-12-06T11:14:52.573Z,1488.64
2022-12-06T11:15:52.733Z,1548.8
2022-12-06T11:16:52.804Z,1783.04
2022-12-06T11:17:54.099Z,1934.08
2022-12-06T11:18:53.109Z,1836.8
2022-12-06T11:19:53.265Z,1637.12
2022-12-06T11:20:53.430Z,1674.24
2022-12-06T11:21:53.612Z,1589.76
2022-12-06T11:22:53.767Z,1698.56
2022-12-06T11:23:53.912Z,1788.16
2022-12-06T11:24:54.064Z,2129.92
2022-12-06T11:25:54.222Z,2018.56
2022-12-06T11:26:54.370Z,1968.64
2022-12-06T11:27:54.526Z,2214.4
2022-12-06T11:28:54.678Z,2405.12
2022-12-06T11:29:54.823Z,2215.68
2022-12-06T11:30:54.961Z,1894.4
2022-12-06T11:31:55.151Z,2082.56
2022-12-06T11:32:55.281Z,2312.96
2022-12-06T11:33:55.376Z,2245.12
2022-12-06T11:34:55.485Z,1981.44
2022-12-06T11:35:55.640Z,1885.44
2022-12-06T11:37:00.032Z,1937.92
2022-12-06T11:37:55.932Z,2172.16
2022-12-06T11:38:56.015Z,1946.88
2022-12-06T11:39:56.190Z,1944.32
2022-12-06T11:40:56.328Z,1946.88
2022-12-06T11:41:56.484Z,2078.72
2022-12-06T11:42:56.641Z,2158.08
2022-12-06T11:43:56.791Z,2058.24
2022-12-06T11:44:56.956Z,2310.4
2022-12-06T11:45:57.042Z,2383.36
2022-12-06T11:46:57.305Z,2124.8
2022-12-06T11:47:57.359Z,2172.16
2022-12-06T11:48:57.503Z,2176
2022-12-06T11:50:00.443Z,2187.52
2022-12-06T11:50:57.805Z,2186.24
2022-12-06T11:51:57.960Z,2419.2
2022-12-06T11:52:58.103Z,1730.56
2022-12-06T11:53:58.274Z,1690.88
2022-12-06T11:54:58.765Z,1859.84
2022-12-06T11:55:58.553Z,1799.68
2022-12-06T11:56:58.730Z,1488.64
2022-12-06T11:57:58.877Z,1463.04
2022-12-06T11:58:59.032Z,1808.64
2022-12-06T11:59:59.351Z,2064.64
2022-12-06T12:00:59.310Z,1777.92
2022-12-06T12:01:59.550Z,1742.08
2022-12-06T12:02:59.687Z,1649.92
2022-12-06T12:03:59.722Z,1516.8
2022-12-06T12:05:00.054Z,1514.24
2022-12-06T12:06:00.030Z,1559.04
2022-12-06T12:07:00.135Z,1596.16
2022-12-06T12:08:00.392Z,1504
2022-12-06T12:09:00.438Z,1591.04
2022-12-06T12:10:00.613Z,1512.96
2022-12-06T12:11:00.780Z,1623.04
2022-12-06T12:12:00.849Z,1514.24
2022-12-06T12:13:00.985Z,1546.24
2022-12-06T12:14:01.155Z,1469.44
2022-12-06T12:15:01.434Z,1374.72
2022-12-06T12:16:01.478Z,1472
2022-12-06T12:17:01.687Z,1602.56
2022-12-06T12:18:01.703Z,1580.8
2022-12-06T12:19:01.816Z,1726.72
2022-12-06T12:20:01.937Z,1776.64
2022-12-06T12:21:02.118Z,1696
2022-12-06T12:22:02.247Z,1752.32
2022-12-06T12:23:02.407Z,1822.72
2022-12-06T12:24:02.553Z,1706.24
2022-12-06T12:25:19.392Z,1443.84
2022-12-06T12:26:02.858Z,1779.2
2022-12-06T12:27:03.019Z,1733.12
2022-12-06T12:28:03.122Z,1733.12
2022-12-06T12:29:03.320Z,1674.24
2022-12-06T12:30:03.416Z,1579.52
2022-12-06T12:31:03.550Z,1553.92
2022-12-06T12:32:03.759Z,1552.64
2022-12-06T12:33:03.820Z,1454.08
2022-12-06T12:34:03.965Z,1340.16
2022-12-06T12:35:04.125Z,1369.6
2022-12-06T12:36:04.267Z,1482.24
2022-12-06T12:37:04.422Z,1649.92
2022-12-06T12:38:04.571Z,1436.16
2022-12-06T12:39:04.719Z,1388.8
2022-12-06T12:40:10.448Z,1261.44
2022-12-06T12:41:05.048Z,1239.04
2022-12-06T12:42:05.120Z,1230.08
2022-12-06T12:43:05.277Z,1290.24
2022-12-06T12:44:28.796Z,1253.12
2022-12-06T12:45:05.516Z,1245.44
2022-12-06T12:46:05.709Z,1233.28
2022-12-06T12:47:05.842Z,1148.16
2022-12-06T12:48:05.992Z,1084.16
2022-12-06T12:49:06.137Z,1147.52
2022-12-06T12:50:06.292Z,1076.48
2022-12-06T12:51:06.437Z,1023.36
2022-12-06T12:52:06.590Z,986.24
2022-12-06T12:53:06.745Z,1077.12